Time;durP1;ratioP1;P1;durP2;ratioP2;P2;SDS_P1;SDS_P2;PMS_P1;PMS_P2;Temp;Humidity;BMP_temperature;BMP_pressure;BME280_temperature;BME280_humidity;BME280_pressure;Samples;Min_cycle;Max_cycle;Signal;HPM_P1;HPM_P2
2023/05/21 00:02:13;;;;;;;10.60;8.30;;;;;;;15.29;59.91;93752.28;4995883;28;20511;-75
2023/05/21 00:04:39;;;;;;;12.82;8.45;;;;;;;15.30;60.32;93749.25;4993200;28;20049;-74
2023/05/21 00:07:05;;;;;;;12.45;8.45;;;;;;;15.12;60.00;93737.28;4987286;28;21247;-75
2023/05/21 00:09:31;;;;;;;12.07;8.95;;;;;;;15.12;59.98;93736.50;4995316;28;20037;-75
2023/05/21 00:11:56;;;;;;;12.15;8.15;;;;;;;15.22;59.11;93742.16;4996587;28;20050;-75
2023/05/21 00:14:21;;;;;;;11.35;8.70;;;;;;;15.25;58.88;93730.78;4993126;28;20780;-74
2023/05/21 00:16:47;;;;;;;14.50;9.05;;;;;;;15.43;58.52;93737.34;4989758;28;20306;-75
2023/05/21 00:19:12;;;;;;;12.18;8.98;;;;;;;15.02;59.00;93721.72;4992029;28;20052;-75
2023/05/21 00:21:38;;;;;;;14.23;9.05;;;;;;;15.13;58.57;93722.78;4991406;28;20045;-75
2023/05/21 00:24:04;;;;;;;10.88;9.63;;;;;;;15.08;59.29;93736.44;4979908;28;20032;-74
2023/05/21 00:26:30;;;;;;;11.52;8.93;;;;;;;14.94;59.55;93736.84;4975018;28;20061;-75
2023/05/21 00:28:55;;;;;;;16.02;10.07;;;;;;;14.83;60.17;93730.41;4992305;28;20121;-75
2023/05/21 00:31:21;;;;;;;15.63;9.32;;;;;;;14.81;60.85;93737.22;4987302;28;20117;-75
2023/05/21 00:33:46;;;;;;;15.98;9.55;;;;;;;14.64;60.85;93716.88;4977723;28;20069;-75
2023/05/21 00:36:13;;;;;;;11.20;9.38;;;;;;;14.82;60.28;93736.09;4978127;28;20500;-74
2023/05/21 00:38:42;;;;;;;11.98;9.57;;;;;;;14.77;60.98;93730.97;4973781;28;20671;-75
2023/05/21 00:41:08;;;;;;;15.45;9.52;;;;;;;14.66;60.98;93713.88;4971840;28;20052;-75
2023/05/21 00:43:33;;;;;;;9.75;8.65;;;;;;;14.70;60.87;93714.75;4986408;28;20072;-74
2023/05/21 00:45:59;;;;;;;13.02;8.80;;;;;;;14.63;60.48;93706.50;4993852;28;20500;-74
2023/05/21 00:48:25;;;;;;;11.38;9.82;;;;;;;14.61;60.81;93714.88;4994649;28;20559;-75
2023/05/21 00:50:51;;;;;;;14.60;10.35;;;;;;;14.66;61.10;93724.56;4994101;28;20120;-74
2023/05/21 00:53:18;;;;;;;10.68;9.00;;;;;;;14.46;61.16;93688.81;4994771;28;20065;-75
2023/05/21 00:55:44;;;;;;;12.48;9.88;;;;;;;14.58;60.96;93712.88;4995495;28;20053;-75
2023/05/21 00:58:10;;;;;;;11.90;9.32;;;;;;;14.55;61.23;93702.88;4999462;28;20528;-75
2023/05/21 01:00:42;;;;;;;15.00;10.18;;;;;;;14.62;60.80;93703.03;4997948;28;20160;-75
2023/05/21 01:03:08;;;;;;;11.30;9.90;;;;;;;14.64;61.09;93716.88;4997717;28;20038;-75
2023/05/21 01:05:33;;;;;;;14.43;9.60;;;;;;;14.53;60.80;93694.34;4998847;28;20022;-75
2023/05/21 01:07:59;;;;;;;11.25;8.70;;;;;;;14.62;61.24;93718.34;4999352;28;20176;-75
2023/05/21 01:10:26;;;;;;;13.95;10.35;;;;;;;14.56;61.39;93707.88;4999752;28;20699;-75
2023/05/21 01:12:53;;;;;;;21.67;11.55;;;;;;;14.62;61.22;93715.66;4997166;28;20046;-75
2023/05/21 01:15:19;;;;;;;11.75;9.55;;;;;;;14.63;61.47;93715.31;4999937;28;20038;-75
2023/05/21 01:17:45;;;;;;;15.45;10.30;;;;;;;14.60;61.80;93706.09;4996896;28;20037;-74
2023/05/21 01:20:11;;;;;;;14.05;10.15;;;;;;;14.66;61.40;93708.50;5000009;28;20496;-75
2023/05/21 01:22:55;;;;;;;13.65;10.93;;;;;;;14.66;61.68;93708.50;4995808;28;20509;-75
2023/05/21 01:25:22;;;;;;;17.35;10.57;;;;;;;14.51;61.37;93697.38;4996967;28;20052;-75
2023/05/21 01:27:48;;;;;;;14.55;9.32;;;;;;;14.55;62.08;93709.00;4997355;28;20039;-75
2023/05/21 01:30:15;;;;;;;13.35;10.35;;;;;;;14.52;61.73;93690.91;4999104;28;20045;-75
2023/05/21 01:32:40;;;;;;;16.38;9.27;;;;;;;14.58;62.07;93702.16;4998278;28;20038;-74
2023/05/21 01:35:05;;;;;;;13.75;9.27;;;;;;;14.64;61.76;93700.03;4998578;28;20064;-74
2023/05/21 01:37:41;;;;;;;13.38;9.05;;;;;;;14.62;61.59;93703.03;4997126;28;20045;-75
2023/05/21 01:40:19;;;;;;;;;;;;;;;14.63;61.62;93698.47;4997598;28;20038;-75
2023/05/21 01:42:46;;;;;;;13.02;9.07;;;;;;;14.52;61.76;93690.91;4996217;28;19928;-74
2023/05/21 01:45:14;;;;;;;12.35;9.52;;;;;;;14.46;62.16;93689.59;5009366;28;20033;-75
2023/05/21 01:47:42;;;;;;;14.18;10.05;;;;;;;14.52;61.99;93696.25;4978781;28;20026;-75
2023/05/21 01:50:08;;;;;;;13.18;9.65;;;;;;;14.48;61.93;93695.38;4979267;28;20187;-75
2023/05/21 01:52:34;;;;;;;13.55;10.55;;;;;;;14.34;62.87;93692.31;4977701;28;20041;-75
2023/05/21 01:55:00;;;;;;;22.30;10.40;;;;;;;14.42;62.31;93688.69;4978273;28;20185;-75
2023/05/21 01:57:25;;;;;;;10.88;9.25;;;;;;;14.41;62.49;93689.84;4978113;28;20612;-74
2023/05/21 01:59:55;;;;;;;13.52;10.60;;;;;;;14.42;62.43;93688.69;4979277;28;20520;-75
2023/05/21 02:02:20;;;;;;;12.85;9.73;;;;;;;14.40;62.12;93692.84;4996455;28;20533;-75
2023/05/21 02:04:46;;;;;;;15.50;9.30;;;;;;;14.35;62.33;93688.50;4995053;28;20046;-75
2023/05/21 02:07:14;;;;;;;12.38;9.77;;;;;;;14.49;61.72;93696.94;4997395;28;20030;-73
2023/05/21 02:09:40;;;;;;;12.73;9.50;;;;;;;14.38;61.84;93677.13;4998755;28;20034;-74
2023/05/21 02:12:06;;;;;;;13.52;10.20;;;;;;;14.34;61.73;93668.22;4996670;28;20508;-74
2023/05/21 02:14:33;;;;;;;15.35;9.95;;;;;;;14.39;61.62;93694.75;4997459;28;20030;-74
2023/05/21 02:16:59;;;;;;;13.77;10.10;;;;;;;14.33;61.82;93690.72;4997094;28;20048;-75
2023/05/21 02:19:25;;;;;;;11.73;9.75;;;;;;;14.29;61.71;93689.88;4997091;28;20072;-75
2023/05/21 02:21:51;;;;;;;14.55;10.32;;;;;;;14.21;61.94;93682.75;4996664;28;20488;-75
2023/05/21 02:24:16;;;;;;;12.98;10.63;;;;;;;14.30;61.14;93686.06;4991571;28;20042;-75
2023/05/21 02:26:42;;;;;;;12.88;9.18;;;;;;;14.23;61.55;93685.84;4994338;28;20526;-75
2023/05/21 02:29:07;;;;;;;17.08;11.60;;;;;;;14.20;61.17;93673.19;4990441;28;20029;-74
2023/05/21 02:31:33;;;;;;;17.50;10.85;;;;;;;14.21;61.14;93687.31;4993944;28;20042;-75
2023/05/21 02:33:58;;;;;;;13.52;10.48;;;;;;;14.06;61.54;93675.44;4993818;28;20038;-75
2023/05/21 02:36:24;;;;;;;12.75;10.45;;;;;;;14.09;61.80;93680.88;4988058;28;20046;-74
2023/05/21 02:38:49;;;;;;;10.65;9.35;;;;;;;14.04;61.54;93670.41;4995793;28;20567;-74
2023/05/21 02:41:15;;;;;;;15.30;9.55;;;;;;;14.00;61.50;93671.44;4995488;28;20088;-75
2023/05/21 02:43:40;;;;;;;14.30;9.65;;;;;;;13.89;61.66;93660.41;4998092;28;20038;-74
2023/05/21 02:46:06;;;;;;;12.85;10.27;;;;;;;13.91;61.61;93678.81;4997128;28;20342;-75
2023/05/21 02:48:31;;;;;;;12.93;10.18;;;;;;;13.84;62.05;93662.56;4996490;28;20120;-74
2023/05/21 02:50:57;;;;;;;15.82;11.18;;;;;;;13.93;61.81;93673.91;4996531;28;20030;-75
2023/05/21 02:53:23;;;;;;;12.90;9.63;;;;;;;13.85;62.15;93672.91;4997209;28;20428;-75
2023/05/21 02:55:48;;;;;;;13.65;9.10;;;;;;;13.84;62.57;93673.25;4995294;28;20076;-75
2023/05/21 02:58:14;;;;;;;11.82;9.75;;;;;;;13.78;62.49;93658.56;4994619;28;20042;-74
2023/05/21 03:00:40;;;;;;;13.07;10.60;;;;;;;13.83;62.80;93669.03;4995779;28;20054;-75
2023/05/21 03:03:05;;;;;;;13.38;10.23;;;;;;;13.84;62.47;93667.91;4994771;28;20084;-75
2023/05/21 03:05:31;;;;;;;13.82;10.05;;;;;;;13.70;62.54;93650.31;4996742;28;20021;-75
2023/05/21 03:07:56;;;;;;;12.73;9.98;;;;;;;13.71;62.96;93665.25;4996264;28;20629;-75
2023/05/21 03:10:21;;;;;;;11.63;10.15;;;;;;;13.79;63.40;93655.53;4996858;28;20033;-75
2023/05/21 03:12:47;;;;;;;15.63;10.70;;;;;;;13.79;62.99;93668.16;4996565;28;20037;-75
2023/05/21 03:15:15;;;;;;;16.50;10.02;;;;;;;13.75;63.81;93660.00;4995308;28;20674;-74
2023/05/21 03:17:43;;;;;;;13.57;10.95;;;;;;;13.78;63.45;93674.59;4995947;28;20018;-74
2023/05/21 03:20:14;;;;;;;16.00;10.27;;;;;;;13.74;63.17;93663.78;4993730;28;20046;-75
2023/05/21 03:22:41;;;;;;;16.52;10.93;;;;;;;13.81;63.04;93672.03;4996178;28;20041;-75
2023/05/21 03:25:06;;;;;;;14.50;10.38;;;;;;;13.86;63.29;93679.03;4995706;28;20187;-74
2023/05/21 03:27:32;;;;;;;11.77;10.35;;;;;;;13.90;63.29;93678.03;4995922;28;20527;-74
2023/05/21 03:29:58;;;;;;;16.23;11.07;;;;;;;13.94;63.82;93678.91;4993841;28;20469;-75
2023/05/21 03:32:23;;;;;;;15.45;10.40;;;;;;;13.93;64.51;93682.72;4995799;28;20084;-75
2023/05/21 03:34:48;;;;;;;14.20;10.90;;;;;;;13.87;64.11;93683.28;4995710;28;20575;-74
2023/05/21 03:37:14;;;;;;;14.80;11.30;;;;;;;13.97;64.49;93682.81;4994888;28;20038;-75
2023/05/21 03:39:39;;;;;;;14.93;10.52;;;;;;;14.01;64.47;93691.72;4994070;28;20042;-75
2023/05/21 03:42:05;;;;;;;16.10;11.00;;;;;;;13.93;64.85;93665.91;4996144;28;20077;-75
2023/05/21 03:44:31;;;;;;;13.27;10.85;;;;;;;14.06;65.17;93692.25;4995655;28;20038;-72
2023/05/21 03:46:57;;;;;;;19.15;10.75;;;;;;;14.08;65.19;93684.66;4995670;28;20044;-75
2023/05/21 03:49:22;;;;;;;16.35;10.35;;;;;;;14.00;64.92;93676.78;4995030;28;20038;-75
2023/05/21 03:51:47;;;;;;;15.65;11.30;;;;;;;14.16;65.21;93685.66;4996926;28;20038;-75
2023/05/21 03:54:13;;;;;;;13.55;10.70;;;;;;;14.16;65.42;93685.66;4993767;28;21291;-75
2023/05/21 03:56:38;;;;;;;14.50;10.98;;;;;;;14.19;65.73;93690.34;4997737;28;20025;-75
2023/05/21 03:59:03;;;;;;;15.15;10.48;;;;;;;14.20;65.79;93670.50;4994584;28;20030;-75
2023/05/21 04:01:29;;;;;;;13.35;10.43;;;;;;;14.15;65.96;93694.81;4996152;28;20046;-74
2023/05/21 04:03:54;;;;;;;15.52;11.30;;;;;;;13.92;66.47;93654.41;4994643;28;20100;-75
2023/05/21 04:06:20;;;;;;;13.57;11.18;;;;;;;14.28;65.96;93688.28;4992742;28;20048;-74
2023/05/21 04:08:45;;;;;;;13.32;10.88;;;;;;;14.18;66.18;93686.88;4995337;28;20033;-75
2023/05/21 04:11:11;;;;;;;15.23;12.10;;;;;;;13.19;70.12;93683.81;4993996;28;20038;-74
2023/05/21 04:13:37;;;;;;;15.30;11.25;;;;;;;13.70;68.75;93686.94;4994252;28;20424;-74
2023/05/21 04:16:02;;;;;;;16.05;11.77;;;;;;;13.99;67.18;93651.16;4992651;28;20042;-74
2023/05/21 04:18:28;;;;;;;13.27;10.60;;;;;;;14.25;66.49;93677.50;4993971;28;20340;-74
2023/05/21 04:20:53;;;;;;;30.58;12.38;;;;;;;13.38;69.62;93693.94;4996264;28;20025;-74
2023/05/21 04:23:19;;;;;;;195.98;18.90;;;;;;;13.46;70.05;93673.56;4994741;28;20046;-74
2023/05/21 04:25:44;;;;;;;19.40;12.32;;;;;;;13.82;68.46;93659.44;4994628;28;20068;-75
2023/05/21 04:28:09;;;;;;;14.00;11.20;;;;;;;14.14;67.95;93677.19;4991795;28;20057;-74
2023/05/21 04:30:35;;;;;;;13.02;10.27;;;;;;;14.06;67.52;93673.53;4994558;28;20463;-75
2023/05/21 04:33:01;;;;;;;15.15;12.32;;;;;;;13.30;70.30;93700.16;4993974;28;20026;-75
2023/05/21 04:35:27;;;;;;;14.00;11.13;;;;;;;12.67;72.56;93686.22;4994310;28;20038;-75
2023/05/21 04:37:53;;;;;;;14.80;12.30;;;;;;;13.34;70.62;93685.03;4994982;28;20528;-76
2023/05/21 04:40:23;;;;;;;13.95;10.52;;;;;;;13.76;68.59;93680.28;4993327;28;20037;-74
2023/05/21 04:42:51;;;;;;;16.08;11.27;;;;;;;13.49;67.28;93681.72;4993778;28;20128;-75
2023/05/21 04:45:16;;;;;;;15.85;12.02;;;;;;;13.11;70.92;93692.66;4995058;28;20496;-74
2023/05/21 04:47:42;;;;;;;19.00;12.75;;;;;;;13.46;69.69;93685.03;4994597;28;20113;-74
2023/05/21 04:50:09;;;;;;;14.10;11.90;;;;;;;13.78;68.24;93678.06;4992195;28;20520;-74
2023/05/21 04:52:35;;;;;;;12.35;9.38;;;;;;;13.30;66.54;93676.88;4993939;28;20369;-74
2023/05/21 04:55:01;;;;;;;12.73;10.05;;;;;;;13.14;69.43;93678.66;4995631;28;20038;-74
2023/05/21 04:57:28;;;;;;;12.00;7.53;;;;;;;13.33;66.71;93672.78;4994494;28;20053;-75
2023/05/21 04:59:55;;;;;;;18.33;11.10;;;;;;;13.57;65.53;93683.47;4996300;28;20576;-73
2023/05/21 05:02:20;;;;;;;17.00;10.60;;;;;;;13.47;68.38;93678.59;4993679;28;20702;-74
2023/05/21 05:04:45;;;;;;;16.95;10.70;;;;;;;13.05;69.42;93680.66;4995095;28;20082;-74
2023/05/21 05:07:11;;;;;;;17.95;11.52;;;;;;;12.48;72.41;93683.22;4993369;28;20060;-74
2023/05/21 05:09:36;;;;;;;17.00;11.75;;;;;;;13.21;70.78;93668.22;4993675;28;20038;-74
2023/05/21 05:12:03;;;;;;;10.43;6.60;;;;;;;12.84;64.82;93679.94;4995247;28;20614;-74
2023/05/21 05:14:29;;;;;;;13.93;9.18;;;;;;;12.84;68.30;93662.03;4995901;28;20432;-74
2023/05/21 05:16:58;;;;;;;9.10;5.85;;;;;;;13.58;65.01;93676.25;4991909;28;20022;-73
2023/05/21 05:19:24;;;;;;;11.02;4.75;;;;;;;13.20;63.12;93673.91;4984574;28;20034;-74
2023/05/21 05:21:49;;;;;;;12.98;5.35;;;;;;;12.78;62.59;93682.03;4993648;28;20064;-74
2023/05/21 05:24:15;;;;;;;12.50;6.13;;;;;;;12.67;64.89;93675.53;4993129;28;20124;-74
2023/05/21 05:26:40;;;;;;;11.15;8.60;;;;;;;13.04;68.72;93683.66;4996061;28;20026;-74
2023/05/21 05:29:05;;;;;;;10.40;5.90;;;;;;;12.99;64.16;93676.63;4993106;28;20497;-74
2023/05/21 05:31:31;;;;;;;10.40;6.00;;;;;;;13.32;63.45;93680.03;4995690;28;20380;-74
2023/05/21 05:33:57;;;;;;;10.82;6.18;;;;;;;13.10;61.85;93683.13;4993391;28;20080;-75
2023/05/21 05:36:23;;;;;;;12.55;7.10;;;;;;;13.12;64.74;93682.78;4989470;28;20054;-74
2023/05/21 05:38:48;;;;;;;14.07;9.15;;;;;;;12.73;69.81;93689.47;4968404;28;20034;-74
2023/05/21 05:41:13;;;;;;;12.75;8.82;;;;;;;13.03;70.04;93682.09;4995152;28;20064;-74
2023/05/21 05:43:39;;;;;;;9.40;6.95;;;;;;;13.10;67.53;93672.44;4997772;28;20522;-74
2023/05/21 05:46:04;;;;;;;13.25;6.85;;;;;;;13.19;66.21;93675.00;4998422;28;20500;-74
2023/05/21 05:48:30;;;;;;;8.50;6.43;;;;;;;13.15;63.73;93658.09;4996557;28;20102;-73
2023/05/21 05:50:56;;;;;;;7.55;6.22;;;;;;;13.17;60.92;93664.66;4998116;28;20029;-73
2023/05/21 05:53:21;;;;;;;8.65;5.65;;;;;;;13.48;61.42;93677.47;4997367;28;20030;-74
2023/05/21 05:55:47;;;;;;;8.95;5.32;;;;;;;13.64;59.68;93673.03;4996992;28;21048;-74
2023/05/21 05:58:12;;;;;;;9.70;5.43;;;;;;;13.55;57.90;93656.31;4996716;28;20040;-74
2023/05/21 06:00:38;;;;;;;9.93;4.93;;;;;;;13.51;58.54;93666.09;4995322;28;20038;-73
2023/05/21 06:03:04;;;;;;;8.30;5.18;;;;;;;13.53;59.80;93681.81;4997318;28;20586;-74
2023/05/21 06:05:29;;;;;;;6.78;4.90;;;;;;;13.83;60.19;93677.81;4995728;28;20543;-75
2023/05/21 06:07:55;;;;;;;13.63;5.60;;;;;;;13.99;58.51;93672.53;4995894;28;20136;-74
2023/05/21 06:10:20;;;;;;;14.98;5.88;;;;;;;13.71;59.53;93670.59;4993176;28;20131;-75
2023/05/21 06:12:46;;;;;;;8.00;5.60;;;;;;;14.03;59.06;93665.44;4992997;28;20555;-74
2023/05/21 06:15:13;;;;;;;11.95;4.80;;;;;;;13.90;57.43;93671.88;4994739;28;20048;-74
2023/05/21 06:17:40;;;;;;;9.20;5.32;;;;;;;14.02;57.04;93664.66;4991638;28;20089;-74
2023/05/21 06:20:08;;;;;;;7.88;5.22;;;;;;;14.12;57.65;93609.91;4993691;28;20042;-72
2023/05/21 06:22:33;;;;;;;9.73;5.28;;;;;;;14.57;56.84;93657.78;4994655;28;20041;-74
2023/05/21 06:24:58;;;;;;;11.82;5.65;;;;;;;14.91;57.42;93649.13;4993563;28;20504;-74
2023/05/21 06:27:24;;;;;;;15.40;4.63;;;;;;;14.84;54.77;93661.56;4994436;28;20099;-74
2023/05/21 06:29:50;;;;;;;9.50;4.53;;;;;;;14.79;54.05;93651.13;4993863;28;20116;-73
2023/05/21 06:32:15;;;;;;;10.75;5.13;;;;;;;15.14;54.77;93657.38;4991954;28;20512;-75
2023/05/21 06:34:40;;;;;;;9.77;4.90;;;;;;;15.14;53.43;93660.06;4988465;28;20081;-74
2023/05/21 06:37:06;;;;;;;10.90;4.85;;;;;;;15.24;53.76;93648.06;4988896;28;20046;-74
2023/05/21 06:39:31;;;;;;;6.28;4.85;;;;;;;15.24;52.74;93645.38;4988036;28;20050;-75
2023/05/21 06:41:57;;;;;;;5.95;5.10;;;;;;;15.53;53.15;93649.53;4991400;28;20549;-74
2023/05/21 06:44:22;;;;;;;8.85;4.65;;;;;;;15.49;52.50;93648.69;4990167;28;20104;-74
2023/05/21 06:46:47;;;;;;;6.55;4.72;;;;;;;15.04;54.21;93639.94;4993191;28;20030;-74
2023/05/21 06:49:13;;;;;;;9.20;4.65;;;;;;;15.10;52.82;93635.09;4995963;28;20516;-73
2023/05/21 06:51:39;;;;;;;7.15;5.13;;;;;;;15.22;53.10;93651.06;4990678;28;20042;-74
2023/05/21 06:54:04;;;;;;;11.60;5.60;;;;;;;15.51;52.56;93657.13;4993119;28;20030;-74
2023/05/21 06:56:30;;;;;;;8.95;4.40;;;;;;;15.50;52.78;93640.28;4975920;28;20631;-75
2023/05/21 06:58:55;;;;;;;10.90;4.57;;;;;;;15.16;52.97;93647.09;4975450;28;20061;-74
2023/05/21 07:01:22;;;;;;;7.25;5.68;;;;;;;15.18;53.78;93652.09;4976174;28;20085;-74
2023/05/21 07:03:48;;;;;;;9.85;5.07;;;;;;;15.30;55.07;93642.06;4975036;28;20049;-75
2023/05/21 07:06:13;;;;;;;8.65;5.30;;;;;;;15.48;54.17;93639.09;4975246;28;20042;-75
2023/05/21 07:08:39;;;;;;;14.23;5.57;;;;;;;15.88;52.31;93639.63;4974932;28;20053;-75
2023/05/21 07:11:04;;;;;;;8.90;4.47;;;;;;;15.40;52.20;93654.19;4974258;28;20101;-75
2023/05/21 07:13:30;;;;;;;8.63;5.70;;;;;;;15.31;51.57;93632.91;4974042;28;20437;-75
2023/05/21 07:15:55;;;;;;;9.75;4.78;;;;;;;15.56;50.31;93635.44;4973846;28;20040;-74
2023/05/21 07:18:21;;;;;;;15.02;5.18;;;;;;;15.65;51.00;93642.16;4975494;28;20049;-74
2023/05/21 07:20:46;;;;;;;11.25;4.93;;;;;;;15.48;50.69;93655.16;4974424;28;20772;-74
2023/05/21 07:23:17;;;;;;;8.40;4.97;;;;;;;15.42;50.30;93607.16;4889510;28;20049;-75
2023/05/21 07:25:42;;;;;;;14.02;5.53;;;;;;;15.68;50.39;93640.69;4936303;28;20479;-74
2023/05/21 07:28:08;;;;;;;15.15;5.03;;;;;;;15.71;50.97;93648.03;4959997;28;20042;-75
2023/05/21 07:30:33;;;;;;;7.90;5.00;;;;;;;15.80;49.91;93627.94;4963113;28;20045;-75
2023/05/21 07:32:59;;;;;;;10.43;5.18;;;;;;;15.57;49.73;93642.34;4951816;28;21095;-74
2023/05/21 07:35:24;;;;;;;7.15;4.60;;;;;;;16.15;50.99;93645.94;4961529;28;20037;-75
2023/05/21 07:37:50;;;;;;;7.43;4.50;;;;;;;15.90;50.29;93637.34;4976184;28;20057;-75
2023/05/21 07:40:15;;;;;;;14.68;4.93;;;;;;;15.78;51.87;93635.59;4979305;28;20531;-75
2023/05/21 07:42:41;;;;;;;12.43;5.57;;;;;;;16.21;51.40;93637.25;4965827;28;20041;-75
2023/05/21 07:45:06;;;;;;;10.57;5.00;;;;;;;15.94;50.65;93643.56;4968672;28;20046;-75
2023/05/21 07:47:32;;;;;;;14.75;5.68;;;;;;;16.00;50.97;93652.91;4982035;28;20173;-75
2023/05/21 07:49:57;;;;;;;9.52;4.40;;;;;;;15.81;49.92;93631.41;4979147;28;21581;-75
2023/05/21 07:52:23;;;;;;;8.40;4.53;;;;;;;16.00;50.06;93644.84;4982011;28;20069;-75
2023/05/21 07:54:49;;;;;;;11.20;5.22;;;;;;;16.35;50.64;93641.38;4978264;28;20439;-75
2023/05/21 07:57:14;;;;;;;13.75;5.30;;;;;;;16.01;48.36;93649.09;4976578;28;20042;-75
2023/05/21 07:59:40;;;;;;;9.48;4.45;;;;;;;15.82;47.79;93641.81;4959064;28;20034;-75
2023/05/21 08:02:06;;;;;;;7.28;4.53;;;;;;;15.67;48.44;93639.16;4979668;28;20355;-74
2023/05/21 08:04:31;;;;;;;12.55;4.88;;;;;;;15.41;48.35;93648.47;4980844;28;20100;-74
2023/05/21 08:06:57;;;;;;;9.93;5.80;;;;;;;15.53;49.64;93633.47;4981435;28;20556;-75
2023/05/21 08:09:23;;;;;;;8.43;5.05;;;;;;;15.68;50.43;93640.69;4930442;28;20072;-74
2023/05/21 08:12:13;;;;;;;13.70;5.50;;;;;;;15.80;49.22;93643.25;4944433;28;20029;-74
2023/05/21 08:14:38;;;;;;;10.18;4.80;;;;;;;15.94;49.33;93642.81;4966823;28;20088;-73
2023/05/21 08:17:13;;;;;;;11.05;4.53;;;;;;;16.23;47.74;93631.56;4958742;28;20033;-74
2023/05/21 08:19:39;;;;;;;10.95;4.57;;;;;;;16.45;46.78;93638.16;4927019;28;20375;-74
2023/05/21 08:22:12;;;;;;;7.97;4.47;;;;;;;16.41;45.06;93645.34;4945100;28;20804;-73
2023/05/21 08:24:38;;;;;;;9.43;4.07;;;;;;;16.01;45.39;93640.28;4975055;28;20045;-73
2023/05/21 08:27:14;;;;;;;6.85;3.42;;;;;;;15.89;44.72;93641.94;4960696;28;20041;-73
2023/05/21 08:29:41;;;;;;;8.32;4.70;;;;;;;15.83;45.04;93637.22;4952330;28;20356;-73
2023/05/21 08:32:08;;;;;;;12.75;3.80;;;;;;;15.93;44.02;93647.41;4951756;28;20042;-73
2023/05/21 08:34:34;;;;;;;9.27;3.97;;;;;;;15.80;43.81;93616.44;4967460;28;20104;-73
2023/05/21 08:36:59;;;;;;;6.85;3.90;;;;;;;16.01;43.70;93659.81;4968927;28;20043;-73
2023/05/21 08:39:26;;;;;;;9.32;4.95;;;;;;;15.66;43.10;93634.91;4965085;28;20133;-73
2023/05/21 08:41:56;;;;;;;10.20;4.18;;;;;;;15.60;43.99;93658.50;4955468;28;20030;-73
2023/05/21 08:44:25;;;;;;;9.88;3.72;;;;;;;15.58;44.38;93651.97;4958511;28;20050;-74
2023/05/21 08:46:52;;;;;;;11.57;4.68;;;;;;;15.50;43.89;93644.88;4960297;28;20148;-75
2023/05/21 08:49:25;;;;;;;5.28;3.75;;;;;;;15.18;43.79;93601.22;4956870;28;20045;-75
2023/05/21 08:51:52;;;;;;;7.47;3.60;;;;;;;15.56;43.69;93616.66;4970898;28;20090;-75
2023/05/21 08:54:38;;;;;;;9.23;4.07;;;;;;;15.91;44.21;93633.56;4952542;28;20049;-75
2023/05/21 08:57:04;;;;;;;10.93;4.20;;;;;;;16.04;44.03;93643.03;4945386;28;20481;-75
2023/05/21 08:59:30;;;;;;;6.50;3.53;;;;;;;16.09;44.47;93640.06;4968315;28;20026;-75
2023/05/21 09:02:19;;;;;;;13.60;5.20;;;;;;;16.15;44.04;93641.34;4968493;28;20042;-76
2023/05/21 09:04:48;;;;;;;9.18;3.85;;;;;;;16.11;44.82;93637.81;4950174;28;20793;-74
2023/05/21 09:07:15;;;;;;;14.15;4.90;;;;;;;16.11;46.28;93637.03;4970699;28;20093;-74
2023/05/21 09:09:48;;;;;;;7.97;3.75;;;;;;;16.07;44.87;93644.25;4974978;28;20038;-75
2023/05/21 09:12:13;;;;;;;9.55;3.75;;;;;;;15.83;45.65;93626.50;4954694;28;20050;-75
2023/05/21 09:14:41;;;;;;;5.43;4.18;;;;;;;15.96;46.73;93632.50;4951200;28;20757;-73
2023/05/21 09:17:06;;;;;;;12.85;4.75;;;;;;;16.30;47.08;93645.91;4966910;28;20519;-74
2023/05/21 09:19:32;;;;;;;6.18;4.57;;;;;;;16.46;47.03;93627.06;4967332;28;20047;-74
2023/05/21 09:22:05;;;;;;;5.30;4.05;;;;;;;16.52;46.28;93635.59;4972895;28;20042;-75
2023/05/21 09:24:31;;;;;;;5.32;4.20;;;;;;;16.69;44.37;93630.56;4972296;28;20038;-74
2023/05/21 09:26:57;;;;;;;10.30;4.00;;;;;;;16.91;44.87;93639.81;4976697;28;20069;-75
2023/05/21 09:29:24;;;;;;;8.25;3.92;;;;;;;16.62;44.01;93635.03;4960349;28;20080;-74
2023/05/21 09:31:50;;;;;;;7.80;4.25;;;;;;;16.23;43.57;93650.34;4938934;28;20050;-72
2023/05/21 09:34:16;;;;;;;10.50;3.85;;;;;;;16.44;42.92;93641.94;4958061;28;20077;-72
2023/05/21 09:36:42;;;;;;;6.28;3.78;;;;;;;16.59;42.11;93625.00;4974888;28;20472;-74
2023/05/21 09:39:28;;;;;;;6.68;3.55;;;;;;;16.87;40.19;93627.41;4956518;28;20116;-73
2023/05/21 09:41:59;;;;;;;8.82;3.92;;;;;;;16.77;39.42;93636.09;4970307;28;20567;-74
2023/05/21 09:47:10;;;;;;;6.63;3.22;;;;;;;17.20;38.27;93629.56;5204330;22;20067;-73
2023/05/21 09:49:42;;;;;;;13.43;3.33;;;;;;;16.86;38.47;93626.66;4935300;28;20055;-74
2023/05/21 09:52:08;;;;;;;4.35;3.05;;;;;;;16.81;40.78;93626.94;4944559;28;20343;-73
2023/05/21 09:54:46;;;;;;;6.18;3.90;;;;;;;17.22;38.99;93625.38;4924139;28;20756;-73
2023/05/21 09:57:13;;;;;;;8.80;3.38;;;;;;;17.37;41.03;93610.25;4949278;28;20089;-73
2023/05/21 09:59:39;;;;;;;5.55;3.30;;;;;;;17.07;38.12;93623.56;4954835;28;20027;-76
2023/05/21 10:02:19;;;;;;;5.22;3.13;;;;;;;16.97;37.95;93618.78;4910888;28;20858;-73
2023/05/21 10:04:50;;;;;;;8.77;3.50;;;;;;;16.89;38.00;93617.88;4950438;28;20047;-73
2023/05/21 10:07:24;;;;;;;4.65;3.58;;;;;;;17.17;38.25;93618.41;4937274;28;20145;-74
2023/05/21 10:12:30;;;;;;;8.18;3.63;;;;;;;16.96;38.38;93623.41;5143471;22;20054;-72
2023/05/21 10:15:03;;;;;;;7.18;3.45;;;;;;;17.09;37.73;93616.69;4973347;28;20062;-71
2023/05/21 10:17:31;;;;;;;10.60;4.78;;;;;;;17.06;37.18;93612.03;4968293;28;20513;-72
2023/05/21 10:20:02;;;;;;;6.55;4.20;;;;;;;17.46;43.70;93606.19;4967933;28;20124;-72
2023/05/21 10:22:34;;;;;;;5.93;3.20;;;;;;;17.39;37.46;93614.16;4973742;28;20082;-74
2023/05/21 10:25:04;;;;;;;5.05;3.60;;;;;;;17.34;37.92;93600.25;4979001;28;20045;-74
2023/05/21 10:27:33;;;;;;;6.45;3.90;;;;;;;17.25;38.34;93611.25;4970084;28;20108;-73
2023/05/21 10:30:03;;;;;;;6.47;3.28;;;;;;;16.95;38.20;93600.34;4962573;28;20041;-72
2023/05/21 10:32:32;;;;;;;5.55;3.22;;;;;;;17.29;37.92;93617.44;4957185;28;20840;-73
2023/05/21 10:35:01;;;;;;;8.98;3.80;;;;;;;17.10;38.48;93602.13;4950646;28;20057;-73
2023/05/21 10:37:32;;;;;;;7.10;3.28;;;;;;;17.16;38.38;93608.78;4942240;28;21240;-73
2023/05/21 10:40:12;;;;;;;7.80;3.33;;;;;;;16.70;38.23;93610.66;4964925;28;20046;-73
2023/05/21 10:42:57;;;;;;;6.15;3.55;;;;;;;17.14;39.92;93613.75;4945692;28;20125;-73
2023/05/21 10:45:55;;;;;;;6.35;3.72;;;;;;;17.15;39.66;93612.63;4956449;28;20046;-73
2023/05/21 10:48:27;;;;;;;6.45;3.95;;;;;;;17.27;39.95;93592.81;4970897;28;20567;-73
2023/05/21 10:51:13;;;;;;;11.90;3.97;;;;;;;17.25;39.60;93613.16;4974730;28;20042;-72
2023/05/21 10:54:00;;;;;;;6.50;3.53;;;;;;;17.48;39.12;93616.59;4962735;28;20100;-73
2023/05/21 10:56:38;;;;;;;8.05;3.88;;;;;;;17.60;39.69;93605.63;4972762;28;20039;-73
2023/05/21 10:59:27;;;;;;;10.20;4.38;;;;;;;17.47;39.36;93604.28;4975020;28;20515;-73
2023/05/21 11:01:52;;;;;;;5.40;3.58;;;;;;;17.39;39.86;93608.78;4968581;28;20057;-73
2023/05/21 11:04:38;;;;;;;8.32;4.10;;;;;;;17.58;39.96;93603.31;4972302;28;20030;-73
2023/05/21 11:07:04;;;;;;;7.78;3.80;;;;;;;17.26;39.34;93610.09;4973804;28;20053;-73
2023/05/21 11:09:30;;;;;;;6.63;4.53;;;;;;;17.37;39.61;93599.50;4973264;28;20038;-74
2023/05/21 11:11:57;;;;;;;7.38;4.13;;;;;;;17.59;39.90;93601.41;4953706;28;21458;-73
2023/05/21 11:14:41;;;;;;;5.85;4.25;;;;;;;17.89;40.42;93604.13;4944396;28;20181;-74
2023/05/21 11:17:13;;;;;;;12.18;4.05;;;;;;;18.09;40.01;93596.75;4955316;28;20050;-73
2023/05/21 11:19:46;;;;;;;6.38;4.95;;;;;;;17.55;39.98;93600.56;4956386;28;20074;-73
2023/05/21 11:22:27;;;;;;;9.73;4.30;;;;;;;17.28;40.14;93594.38;4953694;28;20184;-73
2023/05/21 11:24:54;;;;;;;9.90;4.50;;;;;;;17.30;40.69;93577.91;4950398;28;20118;-73
2023/05/21 11:27:39;;;;;;;9.07;4.85;;;;;;;17.26;40.59;93587.84;4962705;28;20349;-73
2023/05/21 11:30:06;;;;;;;9.70;4.88;;;;;;;17.20;40.80;93583.88;4961996;28;20141;-73
2023/05/21 11:32:35;;;;;;;8.38;4.20;;;;;;;17.37;40.84;93588.75;4948092;28;20066;-74
2023/05/21 11:35:01;;;;;;;11.45;4.30;;;;;;;17.43;40.84;93574.66;4950087;28;20592;-73